Orbital elements of NIMIQ 2
| Launched | 28 December 2002 |
| Flight ended | – |
| Launch site | Tyuratam Missile and Space Center, Kazakhstan (Also known as Baikonur Cosmodrome) |
| Owner | Canada |
| NORAD ID | 27632 |
| Date fetched |
Epoch osculation |
Inc. [°] |
Ecc. | RA asc node [hr] |
Arg Peri. [°] |
Mean anom [°] |
Mean motion [rev/day] |
Abs. mag |
| Date fetched |
Epoch osculation |
Inc. [°] |
Ecc. | RA asc node [hr] |
Arg Peri. [°] |
Mean anom [°] |
Mean motion [rev/day] |
Abs. mag |
| 2026 May 09 17:57 | 2026 May 08 21:05:11 | 9.3566 | 0.00062 | 3.8204 | 346.8583 | 29.6811 | 1.00272 | 6.243 |
| 2026 May 08 17:57 | 2026 May 07 21:07:49 | 9.3544 | 0.00062 | 3.8211 | 346.6158 | 29.6811 | 1.00272 | 6.243 |
| 2026 May 07 17:58 | 2026 May 07 05:54:55 | 9.3530 | 0.00063 | 3.8216 | 346.1993 | 29.6811 | 1.00272 | 6.243 |
| 2026 May 06 17:57 | 2026 May 05 12:20:45 | 9.3493 | 0.00063 | 3.8230 | 344.9562 | 29.6811 | 1.00272 | 6.243 |
| 2026 May 05 17:57 | 2026 May 05 12:20:45 | 9.3493 | 0.00063 | 3.8230 | 344.9562 | 29.6811 | 1.00272 | 6.243 |
| 2026 May 04 17:57 | 2026 May 04 10:00:39 | 9.3471 | 0.00064 | 3.8238 | 343.8445 | 29.6811 | 1.00272 | 6.243 |
| 2026 May 03 17:57 | 2026 May 02 21:20:54 | 9.3436 | 0.00064 | 3.8247 | 342.5097 | 29.6811 | 1.00272 | 6.243 |
| 2026 May 02 17:57 | 2026 May 02 11:41:25 | 9.3428 | 0.00064 | 3.8250 | 341.9896 | 29.6811 | 1.00272 | 6.243 |
| 2026 May 01 17:56 | 2026 Apr 30 09:58:47 | 9.3388 | 0.00065 | 3.8264 | 339.2829 | 29.6811 | 1.00272 | 6.243 |
| 2026 Apr 30 17:56 | 2026 Apr 29 21:28:33 | 9.3378 | 0.00065 | 3.8268 | 338.7818 | 29.6811 | 1.00272 | 6.243 |
| 2026 Apr 29 17:57 | 2026 Apr 29 10:45:04 | 9.3369 | 0.00064 | 3.8271 | 338.3103 | 29.6811 | 1.00272 | 6.243 |
| 2026 Apr 28 17:56 | 2026 Apr 28 10:32:37 | 9.3344 | 0.00064 | 3.8280 | 336.8361 | 29.6811 | 1.00272 | 6.243 |
| 2026 Apr 27 17:58 | 2026 Apr 27 11:04:16 | 9.3322 | 0.00064 | 3.8286 | 335.6890 | 29.6811 | 1.00272 | 6.243 |
| 2026 Apr 26 17:58 | 2026 Apr 25 21:38:32 | 9.3288 | 0.00063 | 3.8295 | 333.7121 | 29.6811 | 1.00272 | 6.243 |
| 2026 Apr 25 17:58 | 2026 Apr 25 09:55:38 | 9.3277 | 0.00063 | 3.8298 | 333.2351 | 29.6811 | 1.00272 | 6.243 |
| 2026 Apr 24 17:59 | 2026 Apr 24 03:40:22 | 9.3246 | 0.00062 | 3.8306 | 331.6747 | 29.6811 | 1.00272 | 6.243 |
| 2026 Apr 23 17:57 | 2026 Apr 23 02:54:23 | 9.3221 | 0.00062 | 3.8312 | 330.5542 | 29.6811 | 1.00272 | 6.243 |
| 2026 Apr 22 17:57 | 2026 Apr 21 21:49:02 | 9.3190 | 0.00061 | 3.8323 | 329.4148 | 29.6811 | 1.00272 | 6.243 |
| 2026 Apr 21 17:57 | 2026 Apr 21 10:55:38 | 9.3177 | 0.00061 | 3.8326 | 329.1043 | 29.6811 | 1.00272 | 6.243 |
| 2026 Apr 20 17:57 | 2026 Apr 19 21:54:15 | 9.3136 | 0.00059 | 3.8336 | 329.4673 | 29.6811 | 1.00272 | 6.243 |
| 2026 Apr 19 17:58 | 2026 Apr 19 08:37:38 | 9.3122 | 0.00061 | 3.8337 | 327.6956 | 29.6811 | 1.00272 | 6.243 |
| 2026 Apr 18 17:56 | 2026 Apr 17 11:14:38 | 9.3074 | 0.00061 | 3.8350 | 326.4429 | 29.6811 | 1.00272 | 6.243 |
| 2026 Apr 16 17:57 | 2026 Apr 15 22:04:28 | 9.3034 | 0.00061 | 3.8360 | 325.3378 | 29.6811 | 1.00272 | 6.243 |
| 2026 Apr 14 17:57 | 2026 Apr 14 09:38:38 | 9.2996 | 0.00062 | 3.8374 | 324.0903 | 29.6811 | 1.00272 | 6.243 |
| 2026 Apr 13 17:57 | 2026 Apr 12 22:12:04 | 9.2961 | 0.00063 | 3.8384 | 323.9174 | 29.6811 | 1.00272 | 6.243 |
| 2026 Apr 12 17:57 | 2026 Apr 11 22:14:42 | 9.2941 | 0.00063 | 3.8390 | 323.2003 | 29.6811 | 1.00272 | 6.243 |